sensor_id;sensor_type;location;lat;lon;timestamp;pressure;altitude;pressure_sealevel;temperature;humidity
28428;BME280;15662;49.128;8.520;2023-04-15T00:00:57;99490.44;;;12.03;40.27
28428;BME280;15662;49.128;8.520;2023-04-15T00:03:29;99483.75;;;11.94;40.20
28428;BME280;15662;49.128;8.520;2023-04-15T00:05:58;99488.84;;;11.99;40.27
28428;BME280;15662;49.128;8.520;2023-04-15T00:08:27;99486.31;;;11.96;40.50
28428;BME280;15662;49.128;8.520;2023-04-15T00:10:56;99483.66;;;11.96;40.49
28428;BME280;15662;49.128;8.520;2023-04-15T00:13:26;99487.25;;;11.95;40.67
28428;BME280;15662;49.128;8.520;2023-04-15T00:15:58;99482.88;;;11.94;40.65
28428;BME280;15662;49.128;8.520;2023-04-15T00:18:27;99481.94;;;11.95;40.97
28428;BME280;15662;49.128;8.520;2023-04-15T00:20:57;99492.66;;;11.93;40.83
28428;BME280;15662;49.128;8.520;2023-04-15T00:23:29;99480.44;;;11.89;40.98
28428;BME280;15662;49.128;8.520;2023-04-15T00:25:57;99474.19;;;11.90;41.16
28428;BME280;15662;49.128;8.520;2023-04-15T00:28:26;99484.69;;;11.93;40.87
28428;BME280;15662;49.128;8.520;2023-04-15T00:30:55;99471.72;;;11.85;41.19
28428;BME280;15662;49.128;8.520;2023-04-15T00:33:23;99475.97;;;11.90;41.20
28428;BME280;15662;49.128;8.520;2023-04-15T00:35:50;99474.25;;;11.88;41.17
28428;BME280;15662;49.128;8.520;2023-04-15T00:38:18;99476.06;;;11.88;41.04
28428;BME280;15662;49.128;8.520;2023-04-15T00:40:46;99478.06;;;11.83;41.37
28428;BME280;15662;49.128;8.520;2023-04-15T00:43:14;99476.56;;;11.76;41.33
28428;BME280;15662;49.128;8.520;2023-04-15T00:45:43;99475.97;;;11.69;41.19
28428;BME280;15662;49.128;8.520;2023-04-15T00:48:13;99474.50;;;11.62;41.32
28428;BME280;15662;49.128;8.520;2023-04-15T00:50:42;99477.44;;;11.56;41.25
28428;BME280;15662;49.128;8.520;2023-04-15T00:53:10;99477.72;;;11.50;41.33
28428;BME280;15662;49.128;8.520;2023-04-15T00:55:39;99473.41;;;11.47;41.19
28428;BME280;15662;49.128;8.520;2023-04-15T00:58:07;99479.63;;;11.46;41.31
28428;BME280;15662;49.128;8.520;2023-04-15T01:00:34;99471.84;;;11.43;41.27
28428;BME280;15662;49.128;8.520;2023-04-15T01:03:03;99468.38;;;11.41;41.35
28428;BME280;15662;49.128;8.520;2023-04-15T01:05:31;99483.22;;;11.45;41.34
28428;BME280;15662;49.128;8.520;2023-04-15T01:08:00;99485.09;;;11.43;41.33
28428;BME280;15662;49.128;8.520;2023-04-15T01:10:28;99482.56;;;11.40;41.51
28428;BME280;15662;49.128;8.520;2023-04-15T01:12:57;99478.25;;;11.37;41.77
28428;BME280;15662;49.128;8.520;2023-04-15T01:15:25;99474.81;;;11.35;41.81
28428;BME280;15662;49.128;8.520;2023-04-15T01:17:54;99469.69;;;11.31;41.78
28428;BME280;15662;49.128;8.520;2023-04-15T01:20:22;99467.16;;;11.28;41.92
28428;BME280;15662;49.128;8.520;2023-04-15T01:22:50;99472.47;;;11.28;41.96
28428;BME280;15662;49.128;8.520;2023-04-15T01:25:19;99461.25;;;11.21;42.10
28428;BME280;15662;49.128;8.520;2023-04-15T01:27:49;99478.84;;;11.24;41.88
28428;BME280;15662;49.128;8.520;2023-04-15T01:30:17;99470.94;;;11.22;42.24
28428;BME280;15662;49.128;8.520;2023-04-15T01:32:44;99480.41;;;11.28;42.38
28428;BME280;15662;49.128;8.520;2023-04-15T01:35:13;99474.13;;;11.30;42.15
28428;BME280;15662;49.128;8.520;2023-04-15T01:37:40;99475.81;;;11.33;42.38
28428;BME280;15662;49.128;8.520;2023-04-15T01:40:09;99471.94;;;11.40;42.25
28428;BME280;15662;49.128;8.520;2023-04-15T01:42:37;99461.34;;;11.40;42.19
28428;BME280;15662;49.128;8.520;2023-04-15T01:45:05;99482.25;;;11.48;42.35
28428;BME280;15662;49.128;8.520;2023-04-15T01:47:33;99470.63;;;11.50;42.24
28428;BME280;15662;49.128;8.520;2023-04-15T01:50:01;99475.81;;;11.53;42.23
28428;BME280;15662;49.128;8.520;2023-04-15T01:52:29;99467.84;;;11.53;42.30
28428;BME280;15662;49.128;8.520;2023-04-15T01:54:57;99478.59;;;11.50;42.32
28428;BME280;15662;49.128;8.520;2023-04-15T01:57:25;99475.47;;;11.41;41.96
28428;BME280;15662;49.128;8.520;2023-04-15T01:59:52;99477.78;;;11.28;41.90
28428;BME280;15662;49.128;8.520;2023-04-15T02:02:21;99476.31;;;11.21;42.06
28428;BME280;15662;49.128;8.520;2023-04-15T02:04:49;99473.88;;;11.16;42.05
28428;BME280;15662;49.128;8.520;2023-04-15T02:07:17;99471.47;;;11.10;41.95
28428;BME280;15662;49.128;8.520;2023-04-15T02:09:44;99476.03;;;11.06;42.22
28428;BME280;15662;49.128;8.520;2023-04-15T02:12:13;99479.03;;;10.99;41.98
28428;BME280;15662;49.128;8.520;2023-04-15T02:14:40;99469.72;;;10.89;42.07
28428;BME280;15662;49.128;8.520;2023-04-15T02:17:08;99477.63;;;10.90;42.20
28428;BME280;15662;49.128;8.520;2023-04-15T02:19:36;99471.56;;;10.87;42.38
28428;BME280;15662;49.128;8.520;2023-04-15T02:22:04;99480.53;;;10.84;42.35
28428;BME280;15662;49.128;8.520;2023-04-15T02:24:33;99478.91;;;10.80;42.33
28428;BME280;15662;49.128;8.520;2023-04-15T02:27:02;99470.22;;;10.76;42.42
28428;BME280;15662;49.128;8.520;2023-04-15T02:29:31;99471.06;;;10.77;42.56
28428;BME280;15662;49.128;8.520;2023-04-15T02:32:00;99470.28;;;10.75;42.61
28428;BME280;15662;49.128;8.520;2023-04-15T02:34:28;99468.75;;;10.69;42.63
28428;BME280;15662;49.128;8.520;2023-04-15T02:36:57;99476.63;;;10.71;42.72
28428;BME280;15662;49.128;8.520;2023-04-15T02:39:25;99472.44;;;10.65;42.80
28428;BME280;15662;49.128;8.520;2023-04-15T02:41:54;99478.72;;;10.63;42.78
28428;BME280;15662;49.128;8.520;2023-04-15T02:44:22;99478.88;;;10.59;42.79
28428;BME280;15662;49.128;8.520;2023-04-15T02:46:55;99467.50;;;10.56;42.83
28428;BME280;15662;49.128;8.520;2023-04-15T02:49:24;99468.56;;;10.52;42.83
28428;BME280;15662;49.128;8.520;2023-04-15T02:51:52;99473.75;;;10.55;42.90
28428;BME280;15662;49.128;8.520;2023-04-15T02:54:21;99470.09;;;10.57;42.88
28428;BME280;15662;49.128;8.520;2023-04-15T02:56:53;99463.19;;;10.53;43.06
28428;BME280;15662;49.128;8.520;2023-04-15T02:59:22;99468.47;;;10.53;43.02
28428;BME280;15662;49.128;8.520;2023-04-15T03:01:50;99487.03;;;10.53;43.01
28428;BME280;15662;49.128;8.520;2023-04-15T03:04:18;99483.84;;;10.45;43.01
28428;BME280;15662;49.128;8.520;2023-04-15T03:06:46;99495.41;;;10.43;42.97
28428;BME280;15662;49.128;8.520;2023-04-15T03:09:14;99493.09;;;10.33;42.90
28428;BME280;15662;49.128;8.520;2023-04-15T03:11:42;99488.00;;;10.29;43.02
28428;BME280;15662;49.128;8.520;2023-04-15T03:14:10;99487.94;;;10.30;43.03
28428;BME280;15662;49.128;8.520;2023-04-15T03:16:42;99488.81;;;10.31;43.11
28428;BME280;15662;49.128;8.520;2023-04-15T03:19:10;99492.22;;;10.35;42.95
28428;BME280;15662;49.128;8.520;2023-04-15T03:21:41;99485.06;;;10.37;43.17
28428;BME280;15662;49.128;8.520;2023-04-15T03:24:09;99471.88;;;10.35;43.18
28428;BME280;15662;49.128;8.520;2023-04-15T03:26:37;99477.91;;;10.39;43.23
28428;BME280;15662;49.128;8.520;2023-04-15T03:29:11;99476.19;;;10.38;43.16
28428;BME280;15662;49.128;8.520;2023-04-15T03:31:40;99485.81;;;10.40;43.33
28428;BME280;15662;49.128;8.520;2023-04-15T03:34:08;99482.34;;;10.38;43.15
28428;BME280;15662;49.128;8.520;2023-04-15T03:36:36;99488.50;;;10.39;43.31
28428;BME280;15662;49.128;8.520;2023-04-15T03:39:04;99492.06;;;10.38;43.33
28428;BME280;15662;49.128;8.520;2023-04-15T03:41:32;99500.03;;;10.38;43.43
28428;BME280;15662;49.128;8.520;2023-04-15T03:44:00;99494.78;;;10.36;43.49
28428;BME280;15662;49.128;8.520;2023-04-15T03:46:27;99494.78;;;10.36;43.60
28428;BME280;15662;49.128;8.520;2023-04-15T03:48:55;99500.88;;;10.38;43.59
28428;BME280;15662;49.128;8.520;2023-04-15T03:51:23;99497.19;;;10.42;43.58
28428;BME280;15662;49.128;8.520;2023-04-15T03:53:51;99493.69;;;10.42;43.71
28428;BME280;15662;49.128;8.520;2023-04-15T03:56:18;99488.50;;;10.39;43.64
28428;BME280;15662;49.128;8.520;2023-04-15T03:58:46;99482.47;;;10.35;43.69
28428;BME280;15662;49.128;8.520;2023-04-15T04:01:14;99490.63;;;10.29;43.56
28428;BME280;15662;49.128;8.520;2023-04-15T04:03:41;99482.88;;;10.24;43.71
28428;BME280;15662;49.128;8.520;2023-04-15T04:06:09;99489.22;;;10.19;43.89
28428;BME280;15662;49.128;8.520;2023-04-15T04:08:38;99483.50;;;10.07;43.79
28428;BME280;15662;49.128;8.520;2023-04-15T04:11:06;99485.44;;;10.02;43.88
28428;BME280;15662;49.128;8.520;2023-04-15T04:13:34;99490.06;;;9.97;43.86
28428;BME280;15662;49.128;8.520;2023-04-15T04:16:02;99486.78;;;9.91;43.94
28428;BME280;15662;49.128;8.520;2023-04-15T04:18:33;99493.88;;;9.90;43.83
28428;BME280;15662;49.128;8.520;2023-04-15T04:21:01;99491.47;;;9.82;43.95
28428;BME280;15662;49.128;8.520;2023-04-15T04:23:29;99499.34;;;9.84;44.06
28428;BME280;15662;49.128;8.520;2023-04-15T04:25:57;99503.09;;;9.78;43.99
28428;BME280;15662;49.128;8.520;2023-04-15T04:28:24;99503.94;;;9.79;44.04
28428;BME280;15662;49.128;8.520;2023-04-15T04:30:52;99503.09;;;9.78;44.11
28428;BME280;15662;49.128;8.520;2023-04-15T04:33:20;99509.16;;;9.82;44.13
28428;BME280;15662;49.128;8.520;2023-04-15T04:35:48;99511.72;;;9.83;44.28
28428;BME280;15662;49.128;8.520;2023-04-15T04:38:15;99501.16;;;9.83;44.13
28428;BME280;15662;49.128;8.520;2023-04-15T04:40:43;99504.72;;;9.82;44.29
28428;BME280;15662;49.128;8.520;2023-04-15T04:43:11;99500.28;;;9.83;44.32
28428;BME280;15662;49.128;8.520;2023-04-15T04:45:39;99498.72;;;9.77;44.17
28428;BME280;15662;49.128;8.520;2023-04-15T04:48:07;99506.44;;;9.83;44.25
28428;BME280;15662;49.128;8.520;2023-04-15T04:50:36;99513.41;;;9.86;44.39
28428;BME280;15662;49.128;8.520;2023-04-15T04:53:04;99508.91;;;9.88;44.33
28428;BME280;15662;49.128;8.520;2023-04-15T04:55:32;99511.56;;;9.88;44.53
28428;BME280;15662;49.128;8.520;2023-04-15T04:58:03;99513.63;;;9.80;44.54
28428;BME280;15662;49.128;8.520;2023-04-15T05:00:31;99512.66;;;9.82;44.59
28428;BME280;15662;49.128;8.520;2023-04-15T05:02:59;99516.22;;;9.81;44.76
28428;BME280;15662;49.128;8.520;2023-04-15T05:05:27;99511.03;;;9.78;44.55
28428;BME280;15662;49.128;8.520;2023-04-15T05:07:55;99523.34;;;9.79;44.75
28428;BME280;15662;49.128;8.520;2023-04-15T05:10:23;99514.75;;;9.73;44.73
28428;BME280;15662;49.128;8.520;2023-04-15T05:12:50;99527.06;;;9.74;44.76
28428;BME280;15662;49.128;8.520;2023-04-15T05:15:19;99518.56;;;9.66;44.81
28428;BME280;15662;49.128;8.520;2023-04-15T05:17:46;99536.03;;;9.70;45.00
28428;BME280;15662;49.128;8.520;2023-04-15T05:20:14;99530.09;;;9.63;45.07
28428;BME280;15662;49.128;8.520;2023-04-15T05:22:42;99519.69;;;9.59;45.05
28428;BME280;15662;49.128;8.520;2023-04-15T05:25:10;99528.38;;;9.62;44.94
28428;BME280;15662;49.128;8.520;2023-04-15T05:27:38;99533.75;;;9.61;45.16
28428;BME280;15662;49.128;8.520;2023-04-15T05:30:07;99531.25;;;9.56;45.52
28428;BME280;15662;49.128;8.520;2023-04-15T05:32:35;99537.66;;;9.49;45.17
28428;BME280;15662;49.128;8.520;2023-04-15T05:35:03;99541.22;;;9.48;44.99
28428;BME280;15662;49.128;8.520;2023-04-15T05:37:33;99540.47;;;9.44;45.54
28428;BME280;15662;49.128;8.520;2023-04-15T05:40:01;99550.03;;;9.48;45.60
28428;BME280;15662;49.128;8.520;2023-04-15T05:42:29;99546.50;;;9.48;45.58
28428;BME280;15662;49.128;8.520;2023-04-15T05:44:56;99541.28;;;9.46;45.38
28428;BME280;15662;49.128;8.520;2023-04-15T05:47:24;99540.38;;;9.47;45.50
28428;BME280;15662;49.128;8.520;2023-04-15T05:49:52;99551.53;;;9.55;45.66
28428;BME280;15662;49.128;8.520;2023-04-15T05:52:20;99543.66;;;9.54;46.06
28428;BME280;15662;49.128;8.520;2023-04-15T05:54:48;99531.97;;;9.60;45.74
28428;BME280;15662;49.128;8.520;2023-04-15T05:57:16;99544.09;;;9.67;45.81
28428;BME280;15662;49.128;8.520;2023-04-15T05:59:44;99550.03;;;9.73;46.29
28428;BME280;15662;49.128;8.520;2023-04-15T06:02:13;99543.78;;;9.76;45.97
28428;BME280;15662;49.128;8.520;2023-04-15T06:04:41;99548.84;;;9.82;46.54
28428;BME280;15662;49.128;8.520;2023-04-15T06:07:10;99551.28;;;9.88;46.46
28428;BME280;15662;49.128;8.520;2023-04-15T06:09:38;99550.19;;;9.94;46.39
28428;BME280;15662;49.128;8.520;2023-04-15T06:12:06;99543.00;;;9.97;46.55
28428;BME280;15662;49.128;8.520;2023-04-15T06:14:38;99543.69;;;10.02;46.59
28428;BME280;15662;49.128;8.520;2023-04-15T06:17:07;99538.28;;;10.05;46.73
28428;BME280;15662;49.128;8.520;2023-04-15T06:19:35;99550.28;;;10.16;46.73
28428;BME280;15662;49.128;8.520;2023-04-15T06:22:03;99550.03;;;10.22;46.91
28428;BME280;15662;49.128;8.520;2023-04-15T06:24:33;99541.13;;;10.24;47.00
28428;BME280;15662;49.128;8.520;2023-04-15T06:27:03;99552.31;;;10.32;47.07
28428;BME280;15662;49.128;8.520;2023-04-15T06:29:31;99558.22;;;10.39;47.22
28428;BME280;15662;49.128;8.520;2023-04-15T06:31:59;99560.66;;;10.45;47.25
28428;BME280;15662;49.128;8.520;2023-04-15T06:34:27;99569.25;;;10.52;47.27
28428;BME280;15662;49.128;8.520;2023-04-15T06:36:54;99564.28;;;10.66;47.40
28428;BME280;15662;49.128;8.520;2023-04-15T06:39:22;99577.84;;;10.80;47.51
28428;BME280;15662;49.128;8.520;2023-04-15T06:41:50;99570.22;;;10.95;47.66
28428;BME280;15662;49.128;8.520;2023-04-15T06:44:21;99571.56;;;11.05;47.77
28428;BME280;15662;49.128;8.520;2023-04-15T06:46:49;99577.97;;;11.21;47.65
28428;BME280;15662;49.128;8.520;2023-04-15T06:49:16;99579.94;;;11.38;47.66
28428;BME280;15662;49.128;8.520;2023-04-15T06:51:44;99573.00;;;11.56;47.66
28428;BME280;15662;49.128;8.520;2023-04-15T06:54:12;99567.19;;;11.68;47.66
28428;BME280;15662;49.128;8.520;2023-04-15T06:56:42;99567.19;;;11.88;47.50
28428;BME280;15662;49.128;8.520;2023-04-15T06:59:10;99573.34;;;12.09;47.87
28428;BME280;15662;49.128;8.520;2023-04-15T07:01:38;99569.06;;;12.26;47.51
28428;BME280;15662;49.128;8.520;2023-04-15T07:04:06;99563.94;;;12.42;47.86
28428;BME280;15662;49.128;8.520;2023-04-15T07:06:34;99563.22;;;12.57;47.35
28428;BME280;15662;49.128;8.520;2023-04-15T07:09:02;99571.41;;;12.71;47.51
28428;BME280;15662;49.128;8.520;2023-04-15T07:11:32;99566.34;;;12.84;47.24
28428;BME280;15662;49.128;8.520;2023-04-15T07:13:59;99556.69;;;13.00;47.25
28428;BME280;15662;49.128;8.520;2023-04-15T07:16:28;99558.00;;;13.10;47.16
28428;BME280;15662;49.128;8.520;2023-04-15T07:18:56;99554.59;;;13.26;46.92
28428;BME280;15662;49.128;8.520;2023-04-15T07:21:25;99563.84;;;13.36;46.71
28428;BME280;15662;49.128;8.520;2023-04-15T07:23:54;99565.13;;;13.46;46.65
28428;BME280;15662;49.128;8.520;2023-04-15T07:26:21;99550.63;;;13.52;46.58
28428;BME280;15662;49.128;8.520;2023-04-15T07:28:50;99565.09;;;13.63;46.38
28428;BME280;15662;49.128;8.520;2023-04-15T07:31:18;99555.78;;;13.72;46.39
28428;BME280;15662;49.128;8.520;2023-04-15T07:33:46;99553.44;;;13.83;46.24
28428;BME280;15662;49.128;8.520;2023-04-15T07:36:14;99568.78;;;13.96;46.00
28428;BME280;15662;49.128;8.520;2023-04-15T07:38:41;99563.91;;;14.04;45.91
28428;BME280;15662;49.128;8.520;2023-04-15T07:41:10;99559.13;;;14.10;45.67
28428;BME280;15662;49.128;8.520;2023-04-15T07:43:40;99557.94;;;14.16;45.83
28428;BME280;15662;49.128;8.520;2023-04-15T07:46:09;99561.44;;;14.34;45.64
28428;BME280;15662;49.128;8.520;2023-04-15T07:48:38;99565.31;;;14.44;45.64
28428;BME280;15662;49.128;8.520;2023-04-15T07:51:06;99562.34;;;14.50;45.42
28428;BME280;15662;49.128;8.520;2023-04-15T07:53:34;99567.94;;;14.61;45.46
28428;BME280;15662;49.128;8.520;2023-04-15T07:56:02;99568.28;;;14.71;45.48
28428;BME280;15662;49.128;8.520;2023-04-15T07:58:30;99556.34;;;14.78;45.27
28428;BME280;15662;49.128;8.520;2023-04-15T08:01:00;99552.13;;;14.90;45.09
28428;BME280;15662;49.128;8.520;2023-04-15T08:03:27;99562.09;;;15.02;44.98
28428;BME280;15662;49.128;8.520;2023-04-15T08:05:55;99552.09;;;15.06;44.97
28428;BME280;15662;49.128;8.520;2023-04-15T08:08:23;99561.91;;;15.21;45.01
28428;BME280;15662;49.128;8.520;2023-04-15T08:10:52;99565.25;;;15.25;44.99
28428;BME280;15662;49.128;8.520;2023-04-15T08:13:20;99556.81;;;15.32;44.73
28428;BME280;15662;49.128;8.520;2023-04-15T08:16:26;99559.97;;;15.39;44.41
28428;BME280;15662;49.128;8.520;2023-04-15T08:18:55;99550.25;;;15.38;44.59
28428;BME280;15662;49.128;8.520;2023-04-15T08:21:23;99550.75;;;15.44;44.50
28428;BME280;15662;49.128;8.520;2023-04-15T08:23:52;99555.66;;;15.52;44.26
28428;BME280;15662;49.128;8.520;2023-04-15T08:26:21;99557.84;;;15.60;44.15
28428;BME280;15662;49.128;8.520;2023-04-15T08:28:49;99557.44;;;15.67;44.28
28428;BME280;15662;49.128;8.520;2023-04-15T08:31:18;99569.38;;;15.76;44.32
28428;BME280;15662;49.128;8.520;2023-04-15T08:33:47;99559.94;;;15.85;44.24
28428;BME280;15662;49.128;8.520;2023-04-15T08:36:14;99571.91;;;15.93;43.98
28428;BME280;15662;49.128;8.520;2023-04-15T08:38:44;99563.44;;;16.01;43.96
28428;BME280;15662;49.128;8.520;2023-04-15T08:41:24;99570.41;;;16.18;43.68
28428;BME280;15662;49.128;8.520;2023-04-15T08:44:05;99573.56;;;16.24;43.54
28428;BME280;15662;49.128;8.520;2023-04-15T08:46:33;99567.91;;;16.29;43.77
28428;BME280;15662;49.128;8.520;2023-04-15T08:49:04;99570.31;;;16.34;43.77
28428;BME280;15662;49.128;8.520;2023-04-15T08:51:36;99566.03;;;16.45;43.76
28428;BME280;15662;49.128;8.520;2023-04-15T08:54:04;99567.91;;;16.58;43.81
28428;BME280;15662;49.128;8.520;2023-04-15T08:56:33;99565.06;;;16.61;43.52
28428;BME280;15662;49.128;8.520;2023-04-15T08:59:02;99569.53;;;16.74;43.63
28428;BME280;15662;49.128;8.520;2023-04-15T09:01:31;99571.75;;;16.82;43.59
28428;BME280;15662;49.128;8.520;2023-04-15T09:04:02;99583.47;;;16.94;43.24
28428;BME280;15662;49.128;8.520;2023-04-15T09:06:30;99567.13;;;16.98;43.33
28428;BME280;15662;49.128;8.520;2023-04-15T09:08:58;99580.00;;;17.06;43.19
28428;BME280;15662;49.128;8.520;2023-04-15T09:11:29;99571.03;;;17.07;43.05
28428;BME280;15662;49.128;8.520;2023-04-15T09:13:58;99578.34;;;17.18;43.00
28428;BME280;15662;49.128;8.520;2023-04-15T09:16:26;99576.03;;;17.26;42.98
28428;BME280;15662;49.128;8.520;2023-04-15T09:18:54;99591.56;;;17.34;42.91
28428;BME280;15662;49.128;8.520;2023-04-15T09:21:22;99587.25;;;17.45;42.72
28428;BME280;15662;49.128;8.520;2023-04-15T09:23:59;99590.91;;;17.57;42.50
28428;BME280;15662;49.128;8.520;2023-04-15T09:26:37;99589.56;;;17.64;42.40
28428;BME280;15662;49.128;8.520;2023-04-15T09:29:10;99590.84;;;17.71;42.35
28428;BME280;15662;49.128;8.520;2023-04-15T09:31:41;99595.81;;;17.77;42.51
28428;BME280;15662;49.128;8.520;2023-04-15T09:34:10;99582.22;;;17.81;42.53
28428;BME280;15662;49.128;8.520;2023-04-15T09:36:53;99589.94;;;17.98;42.28
28428;BME280;15662;49.128;8.520;2023-04-15T09:39:21;99594.91;;;18.04;42.65
28428;BME280;15662;49.128;8.520;2023-04-15T09:42:06;99595.75;;;18.17;42.35
28428;BME280;15662;49.128;8.520;2023-04-15T09:44:36;99606.94;;;18.24;42.31
28428;BME280;15662;49.128;8.520;2023-04-15T09:47:05;99600.28;;;18.29;42.38
28428;BME280;15662;49.128;8.520;2023-04-15T09:49:33;99597.28;;;18.34;42.02
28428;BME280;15662;49.128;8.520;2023-04-15T09:52:01;99608.13;;;18.45;41.78
28428;BME280;15662;49.128;8.520;2023-04-15T09:54:37;99606.75;;;18.52;41.42
28428;BME280;15662;49.128;8.520;2023-04-15T09:57:07;99605.66;;;18.55;41.27
28428;BME280;15662;49.128;8.520;2023-04-15T09:59:37;99610.69;;;18.60;41.45
28428;BME280;15662;49.128;8.520;2023-04-15T10:02:05;99601.34;;;18.65;41.45
28428;BME280;15662;49.128;8.520;2023-04-15T10:04:36;99601.91;;;18.70;41.08
28428;BME280;15662;49.128;8.520;2023-04-15T10:07:08;99605.13;;;18.75;41.07
28428;BME280;15662;49.128;8.520;2023-04-15T10:09:38;99611.13;;;18.79;41.05
28428;BME280;15662;49.128;8.520;2023-04-15T10:12:06;99598.69;;;18.78;40.88
28428;BME280;15662;49.128;8.520;2023-04-15T10:14:35;99610.34;;;18.90;40.74
28428;BME280;15662;49.128;8.520;2023-04-15T10:17:05;99612.91;;;18.91;40.67
28428;BME280;15662;49.128;8.520;2023-04-15T10:19:37;99609.91;;;18.96;40.85
28428;BME280;15662;49.128;8.520;2023-04-15T10:22:06;99608.19;;;18.95;40.60
28428;BME280;15662;49.128;8.520;2023-04-15T10:24:35;99612.03;;;19.03;40.64
28428;BME280;15662;49.128;8.520;2023-04-15T10:27:04;99614.28;;;19.10;40.84
28428;BME280;15662;49.128;8.520;2023-04-15T10:29:32;99617.28;;;19.18;40.95
28428;BME280;15662;49.128;8.520;2023-04-15T10:32:02;99609.72;;;19.23;40.44
28428;BME280;15662;49.128;8.520;2023-04-15T10:34:31;99617.00;;;19.33;40.10
28428;BME280;15662;49.128;8.520;2023-04-15T10:37:03;99612.88;;;19.41;40.03
28428;BME280;15662;49.128;8.520;2023-04-15T10:42:09;99623.34;;;19.56;39.67
28428;BME280;15662;49.128;8.520;2023-04-15T10:44:48;99630.78;;;19.66;39.53
28428;BME280;15662;49.128;8.520;2023-04-15T10:47:18;99628.47;;;19.72;39.09
28428;BME280;15662;49.128;8.520;2023-04-15T10:49:58;99622.41;;;19.81;38.07
28428;BME280;15662;49.128;8.520;2023-04-15T10:52:28;99640.03;;;19.86;38.46
28428;BME280;15662;49.128;8.520;2023-04-15T10:55:14;99634.03;;;19.93;37.80
28428;BME280;15662;49.128;8.520;2023-04-15T10:57:44;99631.34;;;19.93;37.80
28428;BME280;15662;49.128;8.520;2023-04-15T11:00:14;99645.47;;;20.08;37.45
28428;BME280;15662;49.128;8.520;2023-04-15T11:05:50;99640.38;;;20.16;36.96
28428;BME280;15662;49.128;8.520;2023-04-15T11:08:19;99638.75;;;20.14;36.96
28428;BME280;15662;49.128;8.520;2023-04-15T11:13:19;99646.88;;;20.25;36.63
28428;BME280;15662;49.128;8.520;2023-04-15T11:15:55;99646.50;;;20.29;36.41
28428;BME280;15662;49.128;8.520;2023-04-15T11:18:29;99641.63;;;20.34;36.26
28428;BME280;15662;49.128;8.520;2023-04-15T11:21:01;99647.63;;;20.38;36.02
28428;BME280;15662;49.128;8.520;2023-04-15T11:23:41;99644.25;;;20.47;36.08
28428;BME280;15662;49.128;8.520;2023-04-15T11:26:14;99644.88;;;20.51;35.81
28428;BME280;15662;49.128;8.520;2023-04-15T11:28:45;99640.97;;;20.55;35.86
28428;BME280;15662;49.128;8.520;2023-04-15T11:31:16;99639.00;;;20.57;35.69
28428;BME280;15662;49.128;8.520;2023-04-15T11:33:56;99649.19;;;20.65;35.94
28428;BME280;15662;49.128;8.520;2023-04-15T11:36:27;99644.16;;;20.71;35.39
28428;BME280;15662;49.128;8.520;2023-04-15T11:38:57;99635.94;;;20.73;34.95
28428;BME280;15662;49.128;8.520;2023-04-15T11:41:26;99645.72;;;20.74;34.81
28428;BME280;15662;49.128;8.520;2023-04-15T11:43:53;99648.41;;;20.74;34.73
28428;BME280;15662;49.128;8.520;2023-04-15T11:46:29;99647.19;;;20.78;34.43
28428;BME280;15662;49.128;8.520;2023-04-15T11:49:00;99646.34;;;20.77;34.62
28428;BME280;15662;49.128;8.520;2023-04-15T11:51:32;99653.22;;;20.81;33.94
28428;BME280;15662;49.128;8.520;2023-04-15T11:54:01;99648.81;;;20.80;34.27
28428;BME280;15662;49.128;8.520;2023-04-15T11:56:29;99639.88;;;20.80;33.99
28428;BME280;15662;49.128;8.520;2023-04-15T11:58:59;99659.72;;;20.79;33.02
28428;BME280;15662;49.128;8.520;2023-04-15T12:01:34;99657.38;;;20.74;32.77
28428;BME280;15662;49.128;8.520;2023-04-15T12:04:15;99662.41;;;20.79;32.72
28428;BME280;15662;49.128;8.520;2023-04-15T12:06:50;99667.53;;;20.82;32.75
28428;BME280;15662;49.128;8.520;2023-04-15T12:09:20;99667.53;;;20.93;32.61
28428;BME280;15662;49.128;8.520;2023-04-15T12:11:49;99679.41;;;21.02;32.63
28428;BME280;15662;49.128;8.520;2023-04-15T12:14:34;99669.13;;;21.07;31.88
28428;BME280;15662;49.128;8.520;2023-04-15T12:17:09;99678.06;;;21.07;31.67
28428;BME280;15662;49.128;8.520;2023-04-15T12:19:40;99681.38;;;21.11;31.21
28428;BME280;15662;49.128;8.520;2023-04-15T12:22:16;99686.53;;;21.14;30.82
28428;BME280;15662;49.128;8.520;2023-04-15T12:24:44;99696.09;;;21.18;30.93
28428;BME280;15662;49.128;8.520;2023-04-15T12:27:16;99681.50;;;21.21;29.74
28428;BME280;15662;49.128;8.520;2023-04-15T12:29:44;99681.75;;;21.29;29.34
28428;BME280;15662;49.128;8.520;2023-04-15T12:32:16;99691.66;;;21.28;28.70
28428;BME280;15662;49.128;8.520;2023-04-15T12:34:52;99709.66;;;21.28;28.60
28428;BME280;15662;49.128;8.520;2023-04-15T12:37:21;99711.13;;;21.21;28.85
28428;BME280;15662;49.128;8.520;2023-04-15T12:39:50;99709.56;;;21.18;29.06
28428;BME280;15662;49.128;8.520;2023-04-15T12:42:19;99705.75;;;21.21;29.42
28428;BME280;15662;49.128;8.520;2023-04-15T12:44:47;99720.44;;;21.28;29.20
28428;BME280;15662;49.128;8.520;2023-04-15T12:47:15;99726.47;;;21.31;29.36
28428;BME280;15662;49.128;8.520;2023-04-15T12:49:45;99725.72;;;21.29;29.66
28428;BME280;15662;49.128;8.520;2023-04-15T12:52:13;99718.63;;;21.40;29.12
28428;BME280;15662;49.128;8.520;2023-04-15T12:54:43;99733.69;;;21.42;29.37
28428;BME280;15662;49.128;8.520;2023-04-15T12:57:11;99725.59;;;21.42;29.30
28428;BME280;15662;49.128;8.520;2023-04-15T12:59:39;99730.41;;;21.38;29.48
28428;BME280;15662;49.128;8.520;2023-04-15T13:02:07;99728.41;;;21.29;29.18
28428;BME280;15662;49.128;8.520;2023-04-15T13:04:35;99729.16;;;21.20;29.43
28428;BME280;15662;49.128;8.520;2023-04-15T13:07:05;99732.19;;;21.16;29.43
28428;BME280;15662;49.128;8.520;2023-04-15T13:09:33;99732.56;;;21.11;29.48
28428;BME280;15662;49.128;8.520;2023-04-15T13:12:02;99735.63;;;21.06;29.87
28428;BME280;15662;49.128;8.520;2023-04-15T13:14:31;99720.44;;;20.94;29.78
28428;BME280;15662;49.128;8.520;2023-04-15T13:16:59;99719.97;;;20.89;29.94
28428;BME280;15662;49.128;8.520;2023-04-15T13:19:27;99735.22;;;20.77;29.90
28428;BME280;15662;49.128;8.520;2023-04-15T13:21:55;99728.97;;;20.66;29.83